Warning: Javascript must be enabled to use all the features on this page!


Page Loading - Please Wait...

Click to hideNews Bulletins

Peak Streamflow for the Nation

USGS 01379845 Rockaway River at Warren Street at Dover NJ

Morris County, New Jersey
Hydrologic Unit Code 02030103
Latitude  40°53'10", Longitude  74°33'36" NAD83
Drainage area 52.1  square miles
Gage datum 561.83 feet above NGVD29
Output formats
Table
Graph
Tab-separated file
peakfq (watstore) format
Reselect output format
Water
Year
Date Gage
Height
(feet)
Stream-
flow
(cfs)
1981 1981-05-12 5.46 1,200
1982 1982-01-04 4.76 900
1983 1983-04-16 5.78 1,340
1984 1984-04-06 7.20 2,170
1985 1985-09-27 5.25 1,070
1986 1986-04-17 4.43 730
1987 1987-04-05 6.25 1,600
1988 1987-12-01 4.81 900
1989 1989-05-17 5.10 1,030
1990 1990-05-17 5.83 1,370
1991 1990-12-04 4.75 870
1992 1992-09-04 6.92 2,000
1993 1992-11-23 5.39 1,150
1994 1993-12-06 4.72 870
1995 1995-03-09 4.28 680
1996 1996-01-28 6.09 1,550
1997 1996-10-20 7.03 2,010
1999 1999-09-17 8.91 3,440
2000 2000-08-13 7.82 2,600
2001 2001-03-30 3.96 539
2002 2002-06-07 3.564 4004
2003 2003-06-22 5.24 1,080
2004 2003-12-11 5.47 1,190
2005 2005-04-03 6.07 1,510
2006 2005-10-09 6.59 1,790
2007 2007-04-16 5.56 1,230
2008 2008-03-08 6.47 1,720
2009 2009-08-02 5.74 1,320
2010 2010-03-14 7.66 2,480
2011 2011-08-28 9.35 3,820
2012 2011-12-08 4.55 996
2013 2012-12-21 5.09 1,200
2014 2014-04-30 5.21 1,260
2015 2014-10-16 3.99 710
2016 2016-02-25 5.02 1,170
2017 2017-07-07 4.74 1,030
2018 2017-10-30 5.92 1,630
2019 2018-11-03 5.48 1,400
2020 2020-08-04   1,590
2021 2021-09-01   2,380
?
  Peak Gage-Height Qualification Codes.
?
  Peak Streamflow Qualification Codes.